sensor_id;sensor_type;location;lat;lon;timestamp;P1;durP1;ratioP1;P2;durP2;ratioP2
75698;SDS011;64313;51.018;13.742;2023-08-20T00:00:25;10.32;;;7.28;;
75698;SDS011;64313;51.018;13.742;2023-08-20T00:02:51;11.65;;;7.38;;
75698;SDS011;64313;51.018;13.742;2023-08-20T00:05:31;11.20;;;7.75;;
75698;SDS011;64313;51.018;13.742;2023-08-20T00:07:57;9.65;;;7.72;;
75698;SDS011;64313;51.018;13.742;2023-08-20T00:10:22;9.05;;;7.50;;
75698;SDS011;64313;51.018;13.742;2023-08-20T00:12:48;10.75;;;7.70;;
75698;SDS011;64313;51.018;13.742;2023-08-20T00:15:13;9.60;;;7.70;;
75698;SDS011;64313;51.018;13.742;2023-08-20T00:17:39;10.45;;;7.72;;
75698;SDS011;64313;51.018;13.742;2023-08-20T00:20:07;9.70;;;7.22;;
75698;SDS011;64313;51.018;13.742;2023-08-20T00:22:40;11.07;;;7.93;;
75698;SDS011;64313;51.018;13.742;2023-08-20T00:25:10;9.77;;;7.40;;
75698;SDS011;64313;51.018;13.742;2023-08-20T00:27:37;10.25;;;8.32;;
75698;SDS011;64313;51.018;13.742;2023-08-20T00:30:03;13.30;;;7.57;;
75698;SDS011;64313;51.018;13.742;2023-08-20T00:32:29;9.85;;;7.68;;
75698;SDS011;64313;51.018;13.742;2023-08-20T00:34:54;9.00;;;7.85;;
75698;SDS011;64313;51.018;13.742;2023-08-20T00:37:19;12.70;;;7.55;;
75698;SDS011;64313;51.018;13.742;2023-08-20T00:39:45;9.98;;;7.60;;
75698;SDS011;64313;51.018;13.742;2023-08-20T00:42:10;9.82;;;7.05;;
75698;SDS011;64313;51.018;13.742;2023-08-20T00:44:35;9.40;;;7.00;;
75698;SDS011;64313;51.018;13.742;2023-08-20T00:47:01;10.05;;;7.10;;
75698;SDS011;64313;51.018;13.742;2023-08-20T00:49:29;9.25;;;6.57;;
75698;SDS011;64313;51.018;13.742;2023-08-20T00:51:56;9.43;;;7.35;;
75698;SDS011;64313;51.018;13.742;2023-08-20T00:54:22;8.88;;;6.82;;
75698;SDS011;64313;51.018;13.742;2023-08-20T00:56:48;9.43;;;6.72;;
75698;SDS011;64313;51.018;13.742;2023-08-20T00:59:15;9.25;;;7.45;;
75698;SDS011;64313;51.018;13.742;2023-08-20T01:01:41;9.63;;;7.18;;
75698;SDS011;64313;51.018;13.742;2023-08-20T01:04:06;9.82;;;7.10;;
75698;SDS011;64313;51.018;13.742;2023-08-20T01:06:46;9.15;;;6.85;;
75698;SDS011;64313;51.018;13.742;2023-08-20T01:12:10;10.98;;;6.88;;
75698;SDS011;64313;51.018;13.742;2023-08-20T01:14:38;8.93;;;6.78;;
75698;SDS011;64313;51.018;13.742;2023-08-20T01:17:05;9.73;;;6.97;;
75698;SDS011;64313;51.018;13.742;2023-08-20T01:19:30;9.52;;;7.28;;
75698;SDS011;64313;51.018;13.742;2023-08-20T01:24:47;8.57;;;6.93;;
75698;SDS011;64313;51.018;13.742;2023-08-20T01:30:43;9.88;;;7.45;;
75698;SDS011;64313;51.018;13.742;2023-08-20T01:33:11;8.90;;;6.78;;
75698;SDS011;64313;51.018;13.742;2023-08-20T01:35:40;8.20;;;6.80;;
75698;SDS011;64313;51.018;13.742;2023-08-20T01:38:13;9.88;;;7.00;;
75698;SDS011;64313;51.018;13.742;2023-08-20T01:40:39;9.68;;;7.32;;
75698;SDS011;64313;51.018;13.742;2023-08-20T01:43:04;10.40;;;7.40;;
75698;SDS011;64313;51.018;13.742;2023-08-20T01:45:30;9.77;;;7.18;;
75698;SDS011;64313;51.018;13.742;2023-08-20T01:47:57;8.98;;;6.90;;
75698;SDS011;64313;51.018;13.742;2023-08-20T01:50:22;9.38;;;7.00;;
75698;SDS011;64313;51.018;13.742;2023-08-20T01:52:47;10.13;;;7.13;;
75698;SDS011;64313;51.018;13.742;2023-08-20T01:55:13;8.43;;;6.93;;
75698;SDS011;64313;51.018;13.742;2023-08-20T01:57:39;9.10;;;7.03;;
75698;SDS011;64313;51.018;13.742;2023-08-20T02:00:04;8.98;;;6.65;;
75698;SDS011;64313;51.018;13.742;2023-08-20T02:02:38;11.30;;;7.30;;
75698;SDS011;64313;51.018;13.742;2023-08-20T02:05:04;10.23;;;7.30;;
75698;SDS011;64313;51.018;13.742;2023-08-20T02:07:30;8.90;;;7.07;;
75698;SDS011;64313;51.018;13.742;2023-08-20T02:09:55;10.68;;;7.22;;
75698;SDS011;64313;51.018;13.742;2023-08-20T02:12:20;12.35;;;7.43;;
75698;SDS011;64313;51.018;13.742;2023-08-20T02:14:46;9.32;;;6.78;;
75698;SDS011;64313;51.018;13.742;2023-08-20T02:17:12;10.20;;;7.13;;
75698;SDS011;64313;51.018;13.742;2023-08-20T02:19:37;10.05;;;7.22;;
75698;SDS011;64313;51.018;13.742;2023-08-20T02:22:06;9.20;;;6.88;;
75698;SDS011;64313;51.018;13.742;2023-08-20T02:24:34;17.27;;;7.97;;
75698;SDS011;64313;51.018;13.742;2023-08-20T02:27:00;10.38;;;7.47;;
75698;SDS011;64313;51.018;13.742;2023-08-20T02:29:25;9.93;;;7.13;;
75698;SDS011;64313;51.018;13.742;2023-08-20T02:31:51;9.63;;;7.28;;
75698;SDS011;64313;51.018;13.742;2023-08-20T02:34:16;10.27;;;7.57;;
75698;SDS011;64313;51.018;13.742;2023-08-20T02:36:41;11.07;;;7.28;;
75698;SDS011;64313;51.018;13.742;2023-08-20T02:39:08;10.40;;;7.50;;
75698;SDS011;64313;51.018;13.742;2023-08-20T02:41:34;9.70;;;6.68;;
75698;SDS011;64313;51.018;13.742;2023-08-20T02:44:01;9.57;;;7.15;;
75698;SDS011;64313;51.018;13.742;2023-08-20T02:46:29;10.10;;;7.82;;
75698;SDS011;64313;51.018;13.742;2023-08-20T02:48:56;8.82;;;6.63;;
75698;SDS011;64313;51.018;13.742;2023-08-20T02:51:22;9.50;;;7.40;;
75698;SDS011;64313;51.018;13.742;2023-08-20T02:53:48;9.02;;;6.90;;
75698;SDS011;64313;51.018;13.742;2023-08-20T02:56:13;7.95;;;6.80;;
75698;SDS011;64313;51.018;13.742;2023-08-20T02:58:38;8.90;;;6.85;;
75698;SDS011;64313;51.018;13.742;2023-08-20T03:01:05;10.48;;;7.38;;
75698;SDS011;64313;51.018;13.742;2023-08-20T03:03:31;8.93;;;6.72;;
75698;SDS011;64313;51.018;13.742;2023-08-20T03:05:57;9.10;;;6.88;;
75698;SDS011;64313;51.018;13.742;2023-08-20T03:08:23;9.68;;;7.03;;
75698;SDS011;64313;51.018;13.742;2023-08-20T03:10:48;9.38;;;6.55;;
75698;SDS011;64313;51.018;13.742;2023-08-20T03:13:14;10.00;;;6.50;;
75698;SDS011;64313;51.018;13.742;2023-08-20T03:15:39;9.27;;;7.07;;
75698;SDS011;64313;51.018;13.742;2023-08-20T03:18:05;10.25;;;6.95;;
75698;SDS011;64313;51.018;13.742;2023-08-20T03:20:31;8.95;;;6.85;;
75698;SDS011;64313;51.018;13.742;2023-08-20T03:22:57;9.88;;;6.93;;
75698;SDS011;64313;51.018;13.742;2023-08-20T03:25:23;9.45;;;7.15;;
75698;SDS011;64313;51.018;13.742;2023-08-20T03:27:49;8.65;;;6.90;;
75698;SDS011;64313;51.018;13.742;2023-08-20T03:30:15;8.45;;;6.93;;
75698;SDS011;64313;51.018;13.742;2023-08-20T03:32:43;9.55;;;6.78;;
75698;SDS011;64313;51.018;13.742;2023-08-20T03:35:09;9.38;;;7.28;;
75698;SDS011;64313;51.018;13.742;2023-08-20T03:37:36;9.50;;;6.55;;
75698;SDS011;64313;51.018;13.742;2023-08-20T03:40:01;10.23;;;7.00;;
75698;SDS011;64313;51.018;13.742;2023-08-20T03:42:30;11.43;;;7.20;;
75698;SDS011;64313;51.018;13.742;2023-08-20T03:44:55;10.82;;;6.82;;
75698;SDS011;64313;51.018;13.742;2023-08-20T03:47:21;11.35;;;6.95;;
75698;SDS011;64313;51.018;13.742;2023-08-20T03:49:46;9.00;;;6.70;;
75698;SDS011;64313;51.018;13.742;2023-08-20T03:52:15;9.13;;;6.53;;
75698;SDS011;64313;51.018;13.742;2023-08-20T03:54:41;8.57;;;6.88;;
75698;SDS011;64313;51.018;13.742;2023-08-20T03:57:07;12.07;;;6.55;;
75698;SDS011;64313;51.018;13.742;2023-08-20T03:59:33;9.93;;;6.47;;
75698;SDS011;64313;51.018;13.742;2023-08-20T04:01:58;8.93;;;6.45;;
75698;SDS011;64313;51.018;13.742;2023-08-20T04:04:24;9.48;;;6.00;;
75698;SDS011;64313;51.018;13.742;2023-08-20T04:06:50;10.43;;;5.93;;
75698;SDS011;64313;51.018;13.742;2023-08-20T04:09:16;8.68;;;5.53;;
75698;SDS011;64313;51.018;13.742;2023-08-20T04:11:41;9.07;;;5.60;;
75698;SDS011;64313;51.018;13.742;2023-08-20T04:14:08;9.95;;;5.57;;
75698;SDS011;64313;51.018;13.742;2023-08-20T04:16:34;8.85;;;5.30;;
75698;SDS011;64313;51.018;13.742;2023-08-20T04:18:59;8.00;;;5.53;;
75698;SDS011;64313;51.018;13.742;2023-08-20T04:21:25;8.73;;;5.85;;
75698;SDS011;64313;51.018;13.742;2023-08-20T04:23:51;8.75;;;5.82;;
75698;SDS011;64313;51.018;13.742;2023-08-20T04:26:16;9.98;;;6.00;;
75698;SDS011;64313;51.018;13.742;2023-08-20T04:28:41;7.63;;;5.60;;
75698;SDS011;64313;51.018;13.742;2023-08-20T04:31:07;9.18;;;5.80;;
75698;SDS011;64313;51.018;13.742;2023-08-20T04:33:45;8.88;;;5.28;;
75698;SDS011;64313;51.018;13.742;2023-08-20T04:38:41;8.02;;;5.05;;
75698;SDS011;64313;51.018;13.742;2023-08-20T04:41:07;9.13;;;6.03;;
75698;SDS011;64313;51.018;13.742;2023-08-20T04:43:32;12.05;;;6.13;;
75698;SDS011;64313;51.018;13.742;2023-08-20T04:45:59;8.80;;;5.55;;
75698;SDS011;64313;51.018;13.742;2023-08-20T04:48:24;10.77;;;5.93;;
75698;SDS011;64313;51.018;13.742;2023-08-20T04:50:50;9.43;;;5.47;;
75698;SDS011;64313;51.018;13.742;2023-08-20T04:53:15;9.90;;;5.70;;
75698;SDS011;64313;51.018;13.742;2023-08-20T04:55:42;9.00;;;5.57;;
75698;SDS011;64313;51.018;13.742;2023-08-20T04:58:08;7.85;;;5.30;;
75698;SDS011;64313;51.018;13.742;2023-08-20T05:00:35;8.85;;;5.75;;
75698;SDS011;64313;51.018;13.742;2023-08-20T05:03:06;8.63;;;5.45;;
75698;SDS011;64313;51.018;13.742;2023-08-20T05:05:32;9.65;;;5.65;;
75698;SDS011;64313;51.018;13.742;2023-08-20T05:07:58;7.30;;;5.25;;
75698;SDS011;64313;51.018;13.742;2023-08-20T05:10:23;10.43;;;5.82;;
75698;SDS011;64313;51.018;13.742;2023-08-20T05:12:48;9.18;;;5.72;;
75698;SDS011;64313;51.018;13.742;2023-08-20T05:15:15;8.73;;;5.60;;
75698;SDS011;64313;51.018;13.742;2023-08-20T05:17:40;9.63;;;5.32;;
75698;SDS011;64313;51.018;13.742;2023-08-20T05:20:06;8.30;;;5.18;;
75698;SDS011;64313;51.018;13.742;2023-08-20T05:22:31;10.65;;;5.72;;
75698;SDS011;64313;51.018;13.742;2023-08-20T05:24:57;9.65;;;5.55;;
75698;SDS011;64313;51.018;13.742;2023-08-20T05:27:22;8.32;;;5.43;;
75698;SDS011;64313;51.018;13.742;2023-08-20T05:29:49;8.23;;;5.70;;
75698;SDS011;64313;51.018;13.742;2023-08-20T05:32:16;7.72;;;5.32;;
75698;SDS011;64313;51.018;13.742;2023-08-20T05:34:42;11.57;;;5.70;;
75698;SDS011;64313;51.018;13.742;2023-08-20T05:37:08;8.57;;;5.72;;
75698;SDS011;64313;51.018;13.742;2023-08-20T05:39:37;10.13;;;5.95;;
75698;SDS011;64313;51.018;13.742;2023-08-20T05:42:06;8.95;;;5.43;;
75698;SDS011;64313;51.018;13.742;2023-08-20T05:44:32;9.82;;;5.20;;
75698;SDS011;64313;51.018;13.742;2023-08-20T05:46:58;8.63;;;5.60;;
75698;SDS011;64313;51.018;13.742;2023-08-20T05:49:25;8.88;;;5.20;;
75698;SDS011;64313;51.018;13.742;2023-08-20T05:51:51;8.05;;;5.45;;
75698;SDS011;64313;51.018;13.742;2023-08-20T05:54:17;8.95;;;5.47;;
75698;SDS011;64313;51.018;13.742;2023-08-20T05:56:42;7.70;;;5.40;;
75698;SDS011;64313;51.018;13.742;2023-08-20T05:59:08;8.82;;;5.35;;
75698;SDS011;64313;51.018;13.742;2023-08-20T06:01:33;7.40;;;4.80;;
75698;SDS011;64313;51.018;13.742;2023-08-20T06:03:59;7.45;;;5.22;;
75698;SDS011;64313;51.018;13.742;2023-08-20T06:06:25;9.35;;;5.45;;
75698;SDS011;64313;51.018;13.742;2023-08-20T06:08:51;9.95;;;5.55;;
75698;SDS011;64313;51.018;13.742;2023-08-20T06:11:16;8.60;;;5.40;;
75698;SDS011;64313;51.018;13.742;2023-08-20T06:13:42;7.63;;;5.40;;
75698;SDS011;64313;51.018;13.742;2023-08-20T06:16:09;8.13;;;5.55;;
75698;SDS011;64313;51.018;13.742;2023-08-20T06:18:35;7.07;;;5.18;;
75698;SDS011;64313;51.018;13.742;2023-08-20T06:21:00;8.35;;;5.53;;
75698;SDS011;64313;51.018;13.742;2023-08-20T06:23:25;9.68;;;5.30;;
75698;SDS011;64313;51.018;13.742;2023-08-20T06:25:51;8.85;;;5.05;;
75698;SDS011;64313;51.018;13.742;2023-08-20T06:28:16;6.90;;;4.97;;
75698;SDS011;64313;51.018;13.742;2023-08-20T06:30:43;8.48;;;4.88;;
75698;SDS011;64313;51.018;13.742;2023-08-20T06:33:09;10.05;;;5.65;;
75698;SDS011;64313;51.018;13.742;2023-08-20T06:35:35;8.95;;;6.10;;
75698;SDS011;64313;51.018;13.742;2023-08-20T06:38:00;7.22;;;4.93;;
75698;SDS011;64313;51.018;13.742;2023-08-20T06:40:26;7.68;;;5.32;;
75698;SDS011;64313;51.018;13.742;2023-08-20T06:42:51;9.70;;;5.60;;
75698;SDS011;64313;51.018;13.742;2023-08-20T06:45:16;8.02;;;5.53;;
75698;SDS011;64313;51.018;13.742;2023-08-20T06:47:42;8.07;;;5.35;;
75698;SDS011;64313;51.018;13.742;2023-08-20T06:50:07;9.30;;;5.20;;
75698;SDS011;64313;51.018;13.742;2023-08-20T06:52:33;9.25;;;5.55;;
75698;SDS011;64313;51.018;13.742;2023-08-20T06:54:58;7.75;;;5.32;;
75698;SDS011;64313;51.018;13.742;2023-08-20T06:57:24;8.43;;;5.32;;
75698;SDS011;64313;51.018;13.742;2023-08-20T06:59:49;6.85;;;5.10;;
75698;SDS011;64313;51.018;13.742;2023-08-20T07:02:14;9.57;;;5.70;;
75698;SDS011;64313;51.018;13.742;2023-08-20T07:04:40;8.98;;;6.03;;
75698;SDS011;64313;51.018;13.742;2023-08-20T07:07:05;7.93;;;5.18;;
75698;SDS011;64313;51.018;13.742;2023-08-20T07:09:31;9.52;;;5.53;;
75698;SDS011;64313;51.018;13.742;2023-08-20T07:11:56;9.63;;;5.50;;
75698;SDS011;64313;51.018;13.742;2023-08-20T07:14:21;8.23;;;5.57;;
75698;SDS011;64313;51.018;13.742;2023-08-20T07:16:47;8.95;;;5.53;;
75698;SDS011;64313;51.018;13.742;2023-08-20T07:19:12;9.50;;;5.47;;
75698;SDS011;64313;51.018;13.742;2023-08-20T07:21:37;11.40;;;6.03;;
75698;SDS011;64313;51.018;13.742;2023-08-20T07:24:03;11.07;;;6.13;;
75698;SDS011;64313;51.018;13.742;2023-08-20T07:26:29;10.45;;;5.90;;
75698;SDS011;64313;51.018;13.742;2023-08-20T07:28:54;7.20;;;5.45;;
75698;SDS011;64313;51.018;13.742;2023-08-20T07:31:26;9.10;;;5.50;;
75698;SDS011;64313;51.018;13.742;2023-08-20T07:33:54;7.88;;;5.60;;
75698;SDS011;64313;51.018;13.742;2023-08-20T07:36:21;9.50;;;6.03;;
75698;SDS011;64313;51.018;13.742;2023-08-20T07:38:48;7.78;;;5.50;;
75698;SDS011;64313;51.018;13.742;2023-08-20T07:41:13;7.35;;;5.10;;
75698;SDS011;64313;51.018;13.742;2023-08-20T07:43:39;8.40;;;5.65;;
75698;SDS011;64313;51.018;13.742;2023-08-20T07:46:06;8.77;;;5.70;;
75698;SDS011;64313;51.018;13.742;2023-08-20T07:48:33;6.85;;;5.43;;
75698;SDS011;64313;51.018;13.742;2023-08-20T07:50:59;7.57;;;5.43;;
75698;SDS011;64313;51.018;13.742;2023-08-20T07:53:24;8.55;;;5.75;;
75698;SDS011;64313;51.018;13.742;2023-08-20T07:55:50;9.00;;;5.80;;
75698;SDS011;64313;51.018;13.742;2023-08-20T07:58:15;8.73;;;6.25;;
75698;SDS011;64313;51.018;13.742;2023-08-20T08:00:40;8.35;;;5.35;;
75698;SDS011;64313;51.018;13.742;2023-08-20T08:03:06;9.23;;;5.28;;
75698;SDS011;64313;51.018;13.742;2023-08-20T08:05:31;8.80;;;5.60;;
75698;SDS011;64313;51.018;13.742;2023-08-20T08:07:57;7.55;;;5.43;;
75698;SDS011;64313;51.018;13.742;2023-08-20T08:10:24;10.25;;;5.82;;
75698;SDS011;64313;51.018;13.742;2023-08-20T08:12:50;8.95;;;5.47;;
75698;SDS011;64313;51.018;13.742;2023-08-20T08:15:15;10.18;;;5.53;;
75698;SDS011;64313;51.018;13.742;2023-08-20T08:17:40;8.07;;;5.90;;
75698;SDS011;64313;51.018;13.742;2023-08-20T08:20:06;8.55;;;5.38;;
75698;SDS011;64313;51.018;13.742;2023-08-20T08:22:31;8.48;;;5.43;;
75698;SDS011;64313;51.018;13.742;2023-08-20T08:24:57;8.43;;;5.82;;
75698;SDS011;64313;51.018;13.742;2023-08-20T08:27:22;8.45;;;5.75;;
75698;SDS011;64313;51.018;13.742;2023-08-20T08:29:48;8.02;;;5.13;;
75698;SDS011;64313;51.018;13.742;2023-08-20T08:32:13;8.35;;;5.43;;
75698;SDS011;64313;51.018;13.742;2023-08-20T08:34:38;12.43;;;6.15;;
75698;SDS011;64313;51.018;13.742;2023-08-20T08:37:04;8.25;;;5.50;;
75698;SDS011;64313;51.018;13.742;2023-08-20T08:39:29;7.68;;;5.40;;
75698;SDS011;64313;51.018;13.742;2023-08-20T08:42:02;8.90;;;5.72;;
75698;SDS011;64313;51.018;13.742;2023-08-20T08:44:32;8.95;;;6.05;;
75698;SDS011;64313;51.018;13.742;2023-08-20T08:46:58;9.30;;;6.07;;
75698;SDS011;64313;51.018;13.742;2023-08-20T08:49:23;8.45;;;5.60;;
75698;SDS011;64313;51.018;13.742;2023-08-20T08:51:49;9.98;;;5.40;;
75698;SDS011;64313;51.018;13.742;2023-08-20T08:54:16;8.68;;;5.72;;
75698;SDS011;64313;51.018;13.742;2023-08-20T08:56:42;8.27;;;5.43;;
75698;SDS011;64313;51.018;13.742;2023-08-20T08:59:07;9.88;;;5.60;;
75698;SDS011;64313;51.018;13.742;2023-08-20T09:01:37;8.48;;;4.97;;
75698;SDS011;64313;51.018;13.742;2023-08-20T09:04:03;8.13;;;5.50;;
75698;SDS011;64313;51.018;13.742;2023-08-20T09:06:29;8.35;;;5.38;;
75698;SDS011;64313;51.018;13.742;2023-08-20T09:09:10;9.68;;;5.57;;
75698;SDS011;64313;51.018;13.742;2023-08-20T09:11:35;8.75;;;5.93;;
75698;SDS011;64313;51.018;13.742;2023-08-20T09:14:00;6.97;;;5.38;;
75698;SDS011;64313;51.018;13.742;2023-08-20T09:16:26;10.88;;;6.53;;
75698;SDS011;64313;51.018;13.742;2023-08-20T09:18:57;11.63;;;6.43;;
75698;SDS011;64313;51.018;13.742;2023-08-20T09:21:26;9.30;;;6.95;;
75698;SDS011;64313;51.018;13.742;2023-08-20T09:23:58;8.82;;;5.82;;
75698;SDS011;64313;51.018;13.742;2023-08-20T09:26:27;9.35;;;6.43;;
75698;SDS011;64313;51.018;13.742;2023-08-20T09:28:54;11.43;;;6.55;;
75698;SDS011;64313;51.018;13.742;2023-08-20T09:31:21;9.40;;;6.10;;
75698;SDS011;64313;51.018;13.742;2023-08-20T09:34:02;13.07;;;7.30;;
75698;SDS011;64313;51.018;13.742;2023-08-20T09:36:31;10.48;;;7.72;;
75698;SDS011;64313;51.018;13.742;2023-08-20T09:38:58;9.07;;;6.47;;
75698;SDS011;64313;51.018;13.742;2023-08-20T09:41:23;10.07;;;7.50;;
75698;SDS011;64313;51.018;13.742;2023-08-20T09:43:49;11.73;;;7.03;;
75698;SDS011;64313;51.018;13.742;2023-08-20T09:46:21;11.77;;;7.28;;
75698;SDS011;64313;51.018;13.742;2023-08-20T09:48:49;10.73;;;6.88;;
75698;SDS011;64313;51.018;13.742;2023-08-20T09:51:16;9.35;;;7.13;;
75698;SDS011;64313;51.018;13.742;2023-08-20T09:53:48;11.32;;;6.80;;
75698;SDS011;64313;51.018;13.742;2023-08-20T09:56:27;11.07;;;7.20;;
75698;SDS011;64313;51.018;13.742;2023-08-20T09:58:54;10.75;;;7.20;;
75698;SDS011;64313;51.018;13.742;2023-08-20T10:01:20;10.63;;;7.07;;
75698;SDS011;64313;51.018;13.742;2023-08-20T10:03:49;9.23;;;6.90;;
75698;SDS011;64313;51.018;13.742;2023-08-20T10:06:14;10.52;;;7.28;;
75698;SDS011;64313;51.018;13.742;2023-08-20T10:08:39;9.05;;;6.40;;
75698;SDS011;64313;51.018;13.742;2023-08-20T10:11:05;8.95;;;7.03;;
75698;SDS011;64313;51.018;13.742;2023-08-20T10:13:30;10.48;;;6.47;;
75698;SDS011;64313;51.018;13.742;2023-08-20T10:15:56;7.13;;;5.65;;
75698;SDS011;64313;51.018;13.742;2023-08-20T10:18:22;9.52;;;6.18;;
75698;SDS011;64313;51.018;13.742;2023-08-20T10:20:51;10.18;;;6.43;;
75698;SDS011;64313;51.018;13.742;2023-08-20T10:23:20;9.18;;;5.95;;
75698;SDS011;64313;51.018;13.742;2023-08-20T10:25:50;8.63;;;6.18;;
75698;SDS011;64313;51.018;13.742;2023-08-20T10:28:20;9.40;;;6.15;;
75698;SDS011;64313;51.018;13.742;2023-08-20T10:35:55;7.63;;;5.20;;
75698;SDS011;64313;51.018;13.742;2023-08-20T10:38:20;10.10;;;5.22;;
75698;SDS011;64313;51.018;13.742;2023-08-20T10:40:55;7.15;;;5.10;;
75698;SDS011;64313;51.018;13.742;2023-08-20T10:46:22;9.10;;;5.47;;
75698;SDS011;64313;51.018;13.742;2023-08-20T10:48:49;9.77;;;5.45;;
75698;SDS011;64313;51.018;13.742;2023-08-20T10:51:17;9.20;;;5.50;;
75698;SDS011;64313;51.018;13.742;2023-08-20T10:54:04;7.47;;;5.10;;
75698;SDS011;64313;51.018;13.742;2023-08-20T10:56:44;7.50;;;5.30;;
75698;SDS011;64313;51.018;13.742;2023-08-20T11:01:49;7.40;;;5.40;;
75698;SDS011;64313;51.018;13.742;2023-08-20T11:04:17;9.20;;;4.93;;
75698;SDS011;64313;51.018;13.742;2023-08-20T11:06:44;9.60;;;5.03;;
75698;SDS011;64313;51.018;13.742;2023-08-20T11:09:10;7.93;;;5.10;;
75698;SDS011;64313;51.018;13.742;2023-08-20T11:11:39;8.02;;;5.15;;
75698;SDS011;64313;51.018;13.742;2023-08-20T11:16:36;8.27;;;4.85;;
75698;SDS011;64313;51.018;13.742;2023-08-20T11:19:02;7.38;;;4.82;;
75698;SDS011;64313;51.018;13.742;2023-08-20T11:21:40;7.35;;;4.55;;
75698;SDS011;64313;51.018;13.742;2023-08-20T11:24:07;8.88;;;5.07;;
75698;SDS011;64313;51.018;13.742;2023-08-20T11:26:38;8.40;;;5.00;;
75698;SDS011;64313;51.018;13.742;2023-08-20T11:29:05;8.63;;;5.30;;
75698;SDS011;64313;51.018;13.742;2023-08-20T11:31:32;7.32;;;4.80;;
75698;SDS011;64313;51.018;13.742;2023-08-20T11:33:57;7.35;;;4.53;;
75698;SDS011;64313;51.018;13.742;2023-08-20T11:36:23;6.80;;;4.38;;
75698;SDS011;64313;51.018;13.742;2023-08-20T11:38:52;6.32;;;4.40;;
75698;SDS011;64313;51.018;13.742;2023-08-20T11:41:18;6.57;;;4.53;;
75698;SDS011;64313;51.018;13.742;2023-08-20T11:43:45;6.80;;;4.20;;
75698;SDS011;64313;51.018;13.742;2023-08-20T11:46:15;6.70;;;4.63;;
75698;SDS011;64313;51.018;13.742;2023-08-20T11:51:43;6.00;;;4.35;;
75698;SDS011;64313;51.018;13.742;2023-08-20T11:54:13;6.70;;;4.55;;
75698;SDS011;64313;51.018;13.742;2023-08-20T11:59:16;6.97;;;4.70;;
75698;SDS011;64313;51.018;13.742;2023-08-20T12:01:51;7.07;;;4.22;;
75698;SDS011;64313;51.018;13.742;2023-08-20T12:04:17;6.55;;;4.07;;
75698;SDS011;64313;51.018;13.742;2023-08-20T12:06:43;6.80;;;3.88;;
75698;SDS011;64313;51.018;13.742;2023-08-20T12:09:18;7.18;;;4.10;;
75698;SDS011;64313;51.018;13.742;2023-08-20T12:11:49;6.38;;;4.13;;
75698;SDS011;64313;51.018;13.742;2023-08-20T12:14:16;6.63;;;3.80;;
75698;SDS011;64313;51.018;13.742;2023-08-20T12:16:42;6.60;;;4.15;;
75698;SDS011;64313;51.018;13.742;2023-08-20T12:19:08;6.75;;;4.07;;
75698;SDS011;64313;51.018;13.742;2023-08-20T12:21:34;6.50;;;3.95;;
75698;SDS011;64313;51.018;13.742;2023-08-20T12:23:59;7.47;;;4.15;;
75698;SDS011;64313;51.018;13.742;2023-08-20T12:26:25;6.38;;;4.10;;
75698;SDS011;64313;51.018;13.742;2023-08-20T12:28:50;6.72;;;4.10;;
75698;SDS011;64313;51.018;13.742;2023-08-20T12:31:15;6.85;;;4.30;;
75698;SDS011;64313;51.018;13.742;2023-08-20T12:33:41;6.22;;;4.20;;
75698;SDS011;64313;51.018;13.742;2023-08-20T12:36:06;6.40;;;4.30;;
75698;SDS011;64313;51.018;13.742;2023-08-20T12:38:32;5.82;;;3.95;;
75698;SDS011;64313;51.018;13.742;2023-08-20T12:40:59;7.20;;;4.18;;
75698;SDS011;64313;51.018;13.742;2023-08-20T12:43:26;6.72;;;4.25;;
75698;SDS011;64313;51.018;13.742;2023-08-20T12:45:54;7.72;;;4.57;;
75698;SDS011;64313;51.018;13.742;2023-08-20T12:48:19;6.38;;;4.45;;
75698;SDS011;64313;51.018;13.742;2023-08-20T12:50:45;7.53;;;4.97;;
75698;SDS011;64313;51.018;13.742;2023-08-20T12:53:10;5.75;;;4.07;;
75698;SDS011;64313;51.018;13.742;2023-08-20T12:55:37;6.95;;;4.35;;
75698;SDS011;64313;51.018;13.742;2023-08-20T12:58:03;7.55;;;4.28;;
75698;SDS011;64313;51.018;13.742;2023-08-20T13:00:28;7.50;;;4.97;;
75698;SDS011;64313;51.018;13.742;2023-08-20T13:02:54;6.25;;;4.28;;
75698;SDS011;64313;51.018;13.742;2023-08-20T13:05:20;6.55;;;4.38;;
75698;SDS011;64313;51.018;13.742;2023-08-20T13:07:47;7.18;;;4.85;;
75698;SDS011;64313;51.018;13.742;2023-08-20T13:10:13;7.15;;;4.53;;
75698;SDS011;64313;51.018;13.742;2023-08-20T13:12:40;8.27;;;4.47;;
75698;SDS011;64313;51.018;13.742;2023-08-20T13:15:09;8.13;;;4.45;;
75698;SDS011;64313;51.018;13.742;2023-08-20T13:17:35;7.00;;;4.30;;
75698;SDS011;64313;51.018;13.742;2023-08-20T13:20:02;6.05;;;4.47;;
75698;SDS011;64313;51.018;13.742;2023-08-20T13:22:28;6.38;;;4.68;;
75698;SDS011;64313;51.018;13.742;2023-08-20T13:24:53;6.47;;;4.57;;
75698;SDS011;64313;51.018;13.742;2023-08-20T13:27:19;6.68;;;4.78;;
75698;SDS011;64313;51.018;13.742;2023-08-20T13:29:44;7.70;;;4.50;;
75698;SDS011;64313;51.018;13.742;2023-08-20T13:32:09;7.05;;;4.30;;
75698;SDS011;64313;51.018;13.742;2023-08-20T13:34:35;8.07;;;4.72;;
75698;SDS011;64313;51.018;13.742;2023-08-20T13:37:01;8.48;;;4.50;;
75698;SDS011;64313;51.018;13.742;2023-08-20T13:39:26;6.85;;;4.90;;
75698;SDS011;64313;51.018;13.742;2023-08-20T13:41:52;6.20;;;4.20;;
75698;SDS011;64313;51.018;13.742;2023-08-20T13:44:19;6.85;;;4.28;;
75698;SDS011;64313;51.018;13.742;2023-08-20T13:46:44;7.47;;;4.40;;
75698;SDS011;64313;51.018;13.742;2023-08-20T13:49:10;7.05;;;4.50;;
75698;SDS011;64313;51.018;13.742;2023-08-20T13:51:37;8.68;;;4.68;;
75698;SDS011;64313;51.018;13.742;2023-08-20T13:54:02;8.05;;;4.22;;
75698;SDS011;64313;51.018;13.742;2023-08-20T13:56:28;8.68;;;4.45;;
75698;SDS011;64313;51.018;13.742;2023-08-20T13:58:54;7.43;;;4.45;;
75698;SDS011;64313;51.018;13.742;2023-08-20T14:01:19;7.55;;;4.60;;
75698;SDS011;64313;51.018;13.742;2023-08-20T14:03:45;7.60;;;4.28;;
75698;SDS011;64313;51.018;13.742;2023-08-20T14:06:10;6.50;;;4.22;;
75698;SDS011;64313;51.018;13.742;2023-08-20T14:08:36;6.25;;;4.47;;
75698;SDS011;64313;51.018;13.742;2023-08-20T14:11:01;7.90;;;4.80;;
75698;SDS011;64313;51.018;13.742;2023-08-20T14:13:26;6.93;;;4.00;;
75698;SDS011;64313;51.018;13.742;2023-08-20T14:15:52;6.13;;;4.43;;
75698;SDS011;64313;51.018;13.742;2023-08-20T14:18:17;5.80;;;4.00;;
75698;SDS011;64313;51.018;13.742;2023-08-20T14:20:43;7.13;;;4.47;;
75698;SDS011;64313;51.018;13.742;2023-08-20T14:23:08;7.20;;;4.57;;
75698;SDS011;64313;51.018;13.742;2023-08-20T14:25:33;7.47;;;4.28;;
75698;SDS011;64313;51.018;13.742;2023-08-20T14:27:59;7.43;;;4.70;;
75698;SDS011;64313;51.018;13.742;2023-08-20T14:30:24;6.50;;;4.05;;
75698;SDS011;64313;51.018;13.742;2023-08-20T14:32:50;6.13;;;4.20;;
75698;SDS011;64313;51.018;13.742;2023-08-20T14:35:15;6.35;;;4.30;;
75698;SDS011;64313;51.018;13.742;2023-08-20T14:37:40;6.40;;;4.25;;
75698;SDS011;64313;51.018;13.742;2023-08-20T14:40:06;8.73;;;4.82;;
75698;SDS011;64313;51.018;13.742;2023-08-20T14:42:32;7.85;;;4.50;;
75698;SDS011;64313;51.018;13.742;2023-08-20T14:44:58;7.05;;;4.53;;
75698;SDS011;64313;51.018;13.742;2023-08-20T14:47:23;6.40;;;4.30;;
75698;SDS011;64313;51.018;13.742;2023-08-20T14:49:48;5.80;;;4.28;;
75698;SDS011;64313;51.018;13.742;2023-08-20T14:52:14;6.85;;;4.18;;
75698;SDS011;64313;51.018;13.742;2023-08-20T14:54:40;6.22;;;4.60;;
75698;SDS011;64313;51.018;13.742;2023-08-20T14:57:07;7.30;;;4.90;;
75698;SDS011;64313;51.018;13.742;2023-08-20T14:59:32;6.90;;;4.88;;